createdAt,value
2017-10-16T00:00:37.043Z,39.63
2017-10-16T00:03:12.082Z,35.27
2017-10-16T00:05:41.387Z,29.60
2017-10-16T00:08:09.786Z,34.47
2017-10-16T00:10:38.213Z,27.33
2017-10-16T00:13:07.762Z,33.10
2017-10-16T00:15:36.858Z,32.73
2017-10-16T00:18:05.187Z,29.13
2017-10-16T00:20:34.500Z,26.03
2017-10-16T00:23:03.239Z,27.40
2017-10-16T00:25:31.844Z,24.77
2017-10-16T00:28:02.551Z,29.83
2017-10-16T00:30:30.980Z,32.40
2017-10-16T00:33:02.690Z,29.07
2017-10-16T00:35:31.969Z,30.67
2017-10-16T00:38:03.697Z,31.80
2017-10-16T00:40:32.676Z,30.27
2017-10-16T00:43:01.055Z,27.30
2017-10-16T00:45:35.084Z,30.13
2017-10-16T00:48:03.649Z,25.10
2017-10-16T00:50:33.111Z,22.60
2017-10-16T00:53:09.553Z,19.27
2017-10-16T00:55:38.048Z,25.50
2017-10-16T00:58:07.193Z,26.60
2017-10-16T01:00:38.476Z,28.77
2017-10-16T01:03:07.591Z,26.73
2017-10-16T01:05:38.689Z,18.77
2017-10-16T01:08:09.833Z,19.80
2017-10-16T01:10:40.242Z,24.03
2017-10-16T01:13:08.545Z,23.30
2017-10-16T01:15:45.025Z,22.47
2017-10-16T01:18:13.397Z,25.43
2017-10-16T01:20:41.748Z,32.33
2017-10-16T01:23:10.116Z,32.43
2017-10-16T01:25:38.443Z,30.40
2017-10-16T01:28:07.522Z,30.17
2017-10-16T01:30:36.604Z,37.70
2017-10-16T01:33:05.875Z,31.60
2017-10-16T01:35:35.942Z,35.13
2017-10-16T01:38:05.088Z,56.53
2017-10-16T01:40:34.190Z,69.83
2017-10-16T01:43:02.504Z,84.90
2017-10-16T01:45:31.643Z,37.67
2017-10-16T01:48:00.752Z,28.77
2017-10-16T01:50:29.080Z,49.17
2017-10-16T01:52:57.384Z,31.43
2017-10-16T01:55:25.711Z,49.13
2017-10-16T01:57:54.016Z,36.90
2017-10-16T02:00:22.337Z,56.30
2017-10-16T02:02:52.742Z,95.10
2017-10-16T02:05:22.475Z,44.03
2017-10-16T02:07:50.890Z,35.37
2017-10-16T02:10:20.844Z,52.93
2017-10-16T02:12:53.890Z,42.60
2017-10-16T02:15:23.135Z,41.53
2017-10-16T02:17:51.816Z,40.23
2017-10-16T02:20:20.152Z,36.23
2017-10-16T02:22:49.184Z,29.63
2017-10-16T02:25:18.381Z,30.60
2017-10-16T02:27:48.307Z,35.50
2017-10-16T02:30:16.739Z,36.87
2017-10-16T02:32:45.078Z,28.13
2017-10-16T02:35:14.274Z,29.17
2017-10-16T02:37:45.260Z,30.63
2017-10-16T02:40:13.699Z,27.90
2017-10-16T02:42:42.051Z,50.43
2017-10-16T02:45:10.367Z,30.17
2017-10-16T02:47:38.691Z,28.10
2017-10-16T02:50:07.017Z,30.50
2017-10-16T02:52:36.508Z,46.93
2017-10-16T02:55:04.888Z,36.90
2017-10-16T02:57:33.252Z,35.60
2017-10-16T03:00:01.579Z,47.10
2017-10-16T03:02:29.882Z,46.57
2017-10-16T03:04:58.204Z,53.10
2017-10-16T03:07:27.297Z,35.90
2017-10-16T03:09:55.602Z,39.17
2017-10-16T03:12:23.916Z,43.60
2017-10-16T03:14:53.004Z,25.70
2017-10-16T03:17:21.299Z,41.30
2017-10-16T03:19:50.388Z,29.63
2017-10-16T03:22:18.813Z,33.27
2017-10-16T03:24:47.139Z,32.87
2017-10-16T03:27:15.511Z,31.37
2017-10-16T03:29:43.821Z,31.73
2017-10-16T03:32:12.127Z,30.57
2017-10-16T03:34:40.422Z,36.97
2017-10-16T03:37:08.742Z,28.53
2017-10-16T03:39:37.061Z,26.40
2017-10-16T03:42:05.404Z,30.23
2017-10-16T03:44:33.728Z,24.93
2017-10-16T03:47:02.055Z,27.17
2017-10-16T03:49:30.552Z,26.40
2017-10-16T03:51:58.884Z,28.67
2017-10-16T03:54:28.006Z,28.80
2017-10-16T03:56:56.358Z,25.60
2017-10-16T03:59:26.027Z,31.63
2017-10-16T04:01:55.300Z,28.20
2017-10-16T04:04:24.571Z,36.70
2017-10-16T04:06:53.914Z,36.90
2017-10-16T04:09:22.982Z,38.87
2017-10-16T04:11:51.289Z,40.17
2017-10-16T04:14:19.620Z,32.17
2017-10-16T04:16:47.981Z,44.50
2017-10-16T04:19:17.525Z,41.33
2017-10-16T04:21:45.899Z,42.77
2017-10-16T04:24:14.995Z,40.63
2017-10-16T04:26:44.687Z,46.27
2017-10-16T04:29:13.011Z,46.30
2017-10-16T04:31:41.364Z,33.57
2017-10-16T04:34:09.695Z,38.13
2017-10-16T04:36:38.021Z,47.93
2017-10-16T04:39:07.135Z,44.43
2017-10-16T04:41:36.195Z,40.97
2017-10-16T04:44:05.292Z,44.90
2017-10-16T04:46:34.674Z,57.43
2017-10-16T04:49:03.011Z,61.27
2017-10-16T04:51:31.373Z,60.83
2017-10-16T04:54:00.456Z,34.90
2017-10-16T04:56:28.754Z,29.77
2017-10-16T04:58:57.098Z,71.07
2017-10-16T05:01:26.158Z,88.40
2017-10-16T05:03:54.502Z,67.47
2017-10-16T05:06:22.857Z,83.30
2017-10-16T05:08:51.159Z,83.23
2017-10-16T05:11:19.573Z,109.33
2017-10-16T05:13:47.907Z,59.73
2017-10-16T05:16:16.239Z,80.20
2017-10-16T05:18:45.390Z,60.17
2017-10-16T05:21:14.028Z,77.50
2017-10-16T05:23:42.411Z,114.70
2017-10-16T05:26:10.854Z,117.90
2017-10-16T05:28:40.002Z,66.27
2017-10-16T05:31:08.343Z,100.17
2017-10-16T05:33:36.690Z,87.73
2017-10-16T05:36:05.015Z,46.70
2017-10-16T05:38:33.926Z,40.00
2017-10-16T05:41:02.225Z,46.93
2017-10-16T05:43:30.554Z,48.50
2017-10-16T05:45:58.849Z,94.77
2017-10-16T05:48:27.194Z,79.40
2017-10-16T05:50:55.558Z,62.57
2017-10-16T05:53:23.890Z,48.70
2017-10-16T05:55:52.202Z,36.53
2017-10-16T05:58:21.311Z,106.17
2017-10-16T06:00:50.460Z,67.33
2017-10-16T06:03:18.847Z,46.33
2017-10-16T06:05:47.461Z,49.70
2017-10-16T06:08:17.096Z,99.80
2017-10-16T06:10:52.680Z,89.10
2017-10-16T06:13:21.180Z,46.33
2017-10-16T06:15:49.504Z,64.17
2017-10-16T06:18:17.940Z,86.30
2017-10-16T06:20:47.825Z,49.60
2017-10-16T06:23:17.069Z,55.10
2017-10-16T06:25:51.327Z,40.17
2017-10-16T06:28:21.236Z,32.07
2017-10-16T06:30:54.618Z,44.47
2017-10-16T06:33:23.065Z,30.90
2017-10-16T06:35:51.460Z,39.07
2017-10-16T06:38:21.610Z,37.27
2017-10-16T06:40:50.947Z,42.57
2017-10-16T06:43:19.342Z,32.60
2017-10-16T06:45:48.594Z,28.30
2017-10-16T06:48:16.982Z,58.80
2017-10-16T06:50:45.326Z,40.50
2017-10-16T06:53:13.692Z,48.63
2017-10-16T06:55:42.043Z,40.83
2017-10-16T06:58:11.475Z,37.33
2017-10-16T07:00:41.345Z,47.93
2017-10-16T07:03:11.220Z,50.93
2017-10-16T07:05:40.337Z,69.60
2017-10-16T07:08:08.695Z,67.80
2017-10-16T07:10:37.811Z,39.90
2017-10-16T07:13:06.911Z,39.97
2017-10-16T07:15:35.242Z,66.60
2017-10-16T07:18:04.342Z,47.57
2017-10-16T07:20:33.647Z,51.13
2017-10-16T07:23:02.055Z,34.90
2017-10-16T07:25:33.242Z,58.30
2017-10-16T07:28:01.581Z,44.60
2017-10-16T07:30:29.955Z,59.63
2017-10-16T07:32:59.052Z,38.90
2017-10-16T07:35:39.875Z,48.30
2017-10-16T07:38:08.492Z,43.33
2017-10-16T07:40:36.854Z,39.43
2017-10-16T07:43:05.176Z,42.23
2017-10-16T07:45:33.522Z,38.03
2017-10-16T07:48:01.845Z,36.93
2017-10-16T07:50:30.241Z,35.47
2017-10-16T07:52:58.590Z,47.93
2017-10-16T07:55:33.052Z,56.17
2017-10-16T07:58:09.215Z,38.80
2017-10-16T08:00:38.354Z,41.73
2017-10-16T08:03:07.448Z,43.20
2017-10-16T08:05:37.255Z,31.23
2017-10-16T08:08:05.555Z,38.07
2017-10-16T08:10:33.856Z,33.40
2017-10-16T08:13:02.982Z,30.90
2017-10-16T08:15:31.421Z,28.73
2017-10-16T08:17:59.808Z,28.80
2017-10-16T08:23:19.575Z,30.00
2017-10-16T08:25:52.531Z,29.70
2017-10-16T08:28:22.959Z,29.50
2017-10-16T08:30:52.054Z,29.47
2017-10-16T08:33:23.235Z,35.77
2017-10-16T08:35:51.615Z,35.20
2017-10-16T08:38:19.958Z,36.63
2017-10-16T08:40:48.283Z,30.20
2017-10-16T08:43:17.973Z,35.20
2017-10-16T08:45:47.263Z,32.67
2017-10-16T08:48:15.679Z,29.93
2017-10-16T08:50:48.035Z,30.97
2017-10-16T08:53:16.786Z,30.00
2017-10-16T08:55:50.751Z,28.90
2017-10-16T08:58:19.859Z,27.97
2017-10-16T09:00:50.458Z,27.97
2017-10-16T09:03:21.573Z,31.30
2017-10-16T09:05:50.714Z,27.03
2017-10-16T09:08:21.194Z,24.17
2017-10-16T09:10:51.335Z,27.47
2017-10-16T09:13:20.830Z,21.80
2017-10-16T09:15:50.886Z,22.40
2017-10-16T09:18:20.346Z,24.53
2017-10-16T09:20:50.465Z,26.90
2017-10-16T09:23:18.876Z,20.20
2017-10-16T09:25:48.908Z,22.80
2017-10-16T09:28:23.753Z,22.20
2017-10-16T09:30:52.282Z,22.57
2017-10-16T09:33:21.662Z,24.57
2017-10-16T09:35:50.784Z,17.27
2017-10-16T09:38:20.028Z,22.03
2017-10-16T09:40:49.188Z,22.57
2017-10-16T09:43:19.744Z,24.60
2017-10-16T09:45:49.077Z,19.63
2017-10-16T09:48:19.780Z,17.60
2017-10-16T09:50:57.949Z,19.50
2017-10-16T09:53:31.198Z,20.10
2017-10-16T09:56:10.655Z,16.33
2017-10-16T09:58:44.524Z,19.17
2017-10-16T10:01:17.631Z,17.33
2017-10-16T10:03:46.787Z,17.40
2017-10-16T10:06:16.667Z,17.57
2017-10-16T10:08:47.226Z,15.40
2017-10-16T10:11:20.014Z,16.93
2017-10-16T10:13:48.374Z,18.37
2017-10-16T10:16:18.133Z,16.30
2017-10-16T10:18:46.815Z,18.70
2017-10-16T10:21:27.845Z,21.03
2017-10-16T10:24:01.777Z,15.87
2017-10-16T10:26:31.737Z,14.77
2017-10-16T10:29:05.310Z,17.00
2017-10-16T10:31:45.832Z,18.50
2017-10-16T10:34:17.993Z,14.93
2017-10-16T10:36:54.530Z,16.67
2017-10-16T10:39:26.772Z,17.47
2017-10-16T10:41:55.141Z,22.37
2017-10-16T10:44:24.247Z,16.30
2017-10-16T10:46:52.622Z,15.57
2017-10-16T10:49:22.654Z,14.23
2017-10-16T10:51:51.095Z,15.50
2017-10-16T10:54:19.495Z,15.00
2017-10-16T10:56:48.896Z,13.80
2017-10-16T10:59:17.940Z,13.73
2017-10-16T11:01:49.389Z,13.60
2017-10-16T11:04:18.792Z,15.30
2017-10-16T11:06:47.631Z,20.23
2017-10-16T11:09:16.015Z,14.07
2017-10-16T11:11:44.339Z,12.77
2017-10-16T11:14:12.669Z,14.37
2017-10-16T11:16:43.057Z,15.20
2017-10-16T11:19:12.309Z,15.97
2017-10-16T11:21:41.405Z,16.67
2017-10-16T11:24:09.787Z,12.87
2017-10-16T11:26:38.738Z,13.20
2017-10-16T11:29:07.195Z,13.83
2017-10-16T11:31:35.605Z,13.20
2017-10-16T11:34:04.054Z,19.90
2017-10-16T11:36:33.584Z,18.30
2017-10-16T11:39:01.948Z,13.03
2017-10-16T11:41:30.314Z,17.87
2017-10-16T11:43:58.636Z,11.43
2017-10-16T11:46:27.561Z,14.93
2017-10-16T11:48:55.868Z,13.73
2017-10-16T11:51:24.243Z,12.47
2017-10-16T11:53:52.624Z,9.67
2017-10-16T11:56:21.469Z,9.97
2017-10-16T11:58:49.758Z,12.60
2017-10-16T12:01:20.444Z,10.93
2017-10-16T12:03:49.103Z,11.60
2017-10-16T12:06:19.243Z,15.77
2017-10-16T12:08:48.369Z,9.60
2017-10-16T12:11:16.732Z,10.97
2017-10-16T12:13:45.872Z,9.47
2017-10-16T12:16:21.033Z,8.93
2017-10-16T12:18:50.602Z,9.27
2017-10-16T12:21:18.984Z,8.47
2017-10-16T12:23:49.146Z,15.93
2017-10-16T12:26:18.608Z,8.63
2017-10-16T12:28:46.984Z,10.20
2017-10-16T12:31:20.224Z,11.60
2017-10-16T12:33:53.765Z,8.30
2017-10-16T12:36:23.028Z,10.17
2017-10-16T12:38:51.441Z,10.03
2017-10-16T12:41:20.682Z,11.03
2017-10-16T12:43:50.865Z,10.23
2017-10-16T12:46:19.272Z,12.87
2017-10-16T12:48:49.728Z,12.03
2017-10-16T12:52:58.382Z,9.93
2017-10-16T12:55:28.409Z,10.90
2017-10-16T13:03:20.127Z,11.07
2017-10-16T13:05:48.672Z,9.23
2017-10-16T13:08:17.014Z,11.07
2017-10-16T13:10:45.361Z,10.63
2017-10-16T13:13:13.781Z,17.53
2017-10-16T13:15:42.128Z,8.53
2017-10-16T13:18:10.479Z,10.83
2017-10-16T13:20:38.930Z,9.60
2017-10-16T13:23:07.323Z,10.17
2017-10-16T13:25:35.757Z,9.33
2017-10-16T13:28:05.631Z,11.27
2017-10-16T13:30:36.128Z,9.83
2017-10-16T13:33:07.055Z,9.07
2017-10-16T13:35:35.585Z,11.47
2017-10-16T13:38:05.009Z,10.83
2017-10-16T13:40:35.689Z,8.50
2017-10-16T13:43:07.839Z,8.47
2017-10-16T13:45:36.895Z,9.60
2017-10-16T13:48:05.506Z,10.10
2017-10-16T13:50:34.079Z,10.23
2017-10-16T13:53:03.462Z,7.70
2017-10-16T13:55:34.203Z,8.30
2017-10-16T13:58:08.622Z,8.63
2017-10-16T14:00:40.566Z,11.43
2017-10-16T14:06:01.102Z,9.10
2017-10-16T14:08:29.685Z,13.40
2017-10-16T14:10:58.414Z,10.53
2017-10-16T14:13:29.045Z,10.13
2017-10-16T14:15:57.431Z,9.70
2017-10-16T14:18:26.457Z,7.60
2017-10-16T14:21:10.213Z,9.87
2017-10-16T14:28:22.277Z,8.57
2017-10-16T14:30:56.129Z,12.33
2017-10-16T14:33:24.541Z,13.13
2017-10-16T14:35:52.836Z,7.90
2017-10-16T14:38:21.157Z,8.47
2017-10-16T14:40:54.943Z,7.87
2017-10-16T14:43:24.070Z,7.13
2017-10-16T14:45:54.057Z,13.67
2017-10-16T14:48:22.595Z,9.90
2017-10-16T14:50:50.938Z,8.93
2017-10-16T14:53:19.404Z,9.43
2017-10-16T14:55:49.446Z,9.93
2017-10-16T14:58:20.418Z,8.23
2017-10-16T15:00:55.528Z,9.83
2017-10-16T15:03:38.743Z,8.03
2017-10-16T15:06:10.483Z,8.80
2017-10-16T15:08:40.471Z,12.47
2017-10-16T15:11:08.800Z,9.67
2017-10-16T15:13:39.823Z,12.10
2017-10-16T15:16:10.157Z,10.00
2017-10-16T15:18:38.633Z,8.10
2017-10-16T15:21:06.939Z,9.40
2017-10-16T15:23:35.381Z,8.43
2017-10-16T15:26:07.633Z,8.30
2017-10-16T15:28:36.010Z,14.00
2017-10-16T15:31:05.072Z,9.50
2017-10-16T15:33:38.772Z,11.93
2017-10-16T15:36:08.434Z,9.13
2017-10-16T15:38:36.735Z,7.33
2017-10-16T15:41:13.515Z,11.00
2017-10-16T15:43:42.191Z,11.80
2017-10-16T15:46:11.403Z,9.63
2017-10-16T15:48:40.507Z,9.07
2017-10-16T15:51:08.892Z,8.03
2017-10-16T15:53:37.213Z,8.97
2017-10-16T15:56:05.505Z,8.97
2017-10-16T15:58:36.239Z,11.03
2017-10-16T16:01:05.584Z,9.70
2017-10-16T16:03:36.140Z,8.57
2017-10-16T16:06:04.544Z,9.73
2017-10-16T16:08:36.237Z,9.70
2017-10-16T16:11:08.140Z,10.40
2017-10-16T16:13:46.476Z,13.80
2017-10-16T16:16:28.242Z,10.83
2017-10-16T16:19:20.911Z,9.70
2017-10-16T16:21:51.580Z,10.73
2017-10-16T16:24:21.071Z,11.77
2017-10-16T16:26:53.240Z,11.47
2017-10-16T16:29:23.280Z,10.07
2017-10-16T16:31:50.994Z,11.00
2017-10-16T16:34:20.541Z,13.57
2017-10-16T16:36:50.626Z,13.73
2017-10-16T16:39:19.173Z,10.77
2017-10-16T16:41:47.793Z,9.87
2017-10-16T16:44:17.172Z,12.20
2017-10-16T16:46:46.281Z,12.00
2017-10-16T16:49:15.204Z,9.23
2017-10-16T16:51:44.612Z,10.30
2017-10-16T16:54:13.668Z,11.40
2017-10-16T16:56:41.986Z,11.93
2017-10-16T16:59:11.218Z,11.87
2017-10-16T17:01:52.918Z,12.30
2017-10-16T17:04:22.710Z,10.27
2017-10-16T17:06:53.216Z,12.33
2017-10-16T17:09:33.189Z,12.63
2017-10-16T17:12:18.266Z,11.93
2017-10-16T17:14:55.832Z,14.73
2017-10-16T17:17:35.726Z,14.47
2017-10-16T17:20:04.044Z,17.53
2017-10-16T17:22:34.596Z,11.67
2017-10-16T17:25:06.852Z,15.37
2017-10-16T17:27:37.401Z,13.73
2017-10-16T17:30:19.921Z,14.90
2017-10-16T17:32:51.412Z,27.00
2017-10-16T17:35:20.614Z,24.73
2017-10-16T17:37:50.844Z,19.60
2017-10-16T17:40:19.189Z,14.70
2017-10-16T17:42:48.173Z,14.70
2017-10-16T17:45:19.962Z,15.80
2017-10-16T17:50:45.899Z,20.47
2017-10-16T17:53:14.325Z,16.93
2017-10-16T17:55:42.673Z,19.63
2017-10-16T17:58:11.754Z,16.10
2017-10-16T18:00:40.180Z,16.63
2017-10-16T18:03:08.614Z,17.20
2017-10-16T18:05:36.969Z,17.00
2017-10-16T18:08:05.295Z,16.27
2017-10-16T18:10:33.913Z,20.57
2017-10-16T18:13:02.988Z,15.47
2017-10-16T18:15:31.395Z,19.10
2017-10-16T18:18:01.698Z,20.87
2017-10-16T18:20:30.037Z,22.10
2017-10-16T18:22:58.429Z,23.70
2017-10-16T18:25:26.877Z,20.80
2017-10-16T18:27:55.194Z,28.03
2017-10-16T18:30:23.617Z,36.13
2017-10-16T18:32:52.065Z,22.07
2017-10-16T18:35:20.569Z,18.60
2017-10-16T18:37:49.970Z,21.70
2017-10-16T18:40:18.716Z,21.80
2017-10-16T18:42:47.032Z,20.23
2017-10-16T18:45:16.118Z,18.63
2017-10-16T18:47:44.466Z,18.47
2017-10-16T18:50:12.996Z,19.93
2017-10-16T18:52:42.070Z,16.33
2017-10-16T18:55:10.485Z,16.97
2017-10-16T18:57:38.786Z,25.47
2017-10-16T19:00:07.153Z,37.63
2017-10-16T19:02:35.531Z,18.00
2017-10-16T19:05:04.694Z,20.43
2017-10-16T19:07:33.864Z,14.37
2017-10-16T19:10:02.970Z,21.33
2017-10-16T19:12:31.301Z,17.50
2017-10-16T19:14:59.620Z,16.20
2017-10-16T19:17:28.726Z,15.87
2017-10-16T19:19:57.039Z,16.90
2017-10-16T19:22:26.137Z,18.30
2017-10-16T19:24:54.503Z,15.90
2017-10-16T19:27:22.832Z,17.43
2017-10-16T19:29:51.579Z,16.10
2017-10-16T19:32:20.012Z,15.07
2017-10-16T19:34:48.440Z,15.43
2017-10-16T19:37:17.643Z,17.43
2017-10-16T19:39:46.238Z,18.70
2017-10-16T19:42:14.541Z,20.70
2017-10-16T19:44:42.870Z,17.20
2017-10-16T19:47:11.339Z,16.77
2017-10-16T19:49:39.645Z,18.30
2017-10-16T19:52:08.087Z,15.93
2017-10-16T19:54:36.486Z,21.70
2017-10-16T19:57:04.799Z,17.40
2017-10-16T19:59:34.724Z,17.97
2017-10-16T20:02:03.092Z,22.40
2017-10-16T20:04:31.542Z,15.83
2017-10-16T20:06:59.869Z,20.30
2017-10-16T20:09:29.083Z,19.03
2017-10-16T20:11:57.409Z,20.17
2017-10-16T20:14:25.739Z,18.33
2017-10-16T20:16:54.136Z,15.93
2017-10-16T20:19:22.551Z,17.23
2017-10-16T20:21:50.861Z,18.90
2017-10-16T20:24:19.257Z,17.13
2017-10-16T20:26:47.716Z,18.70
2017-10-16T20:29:16.737Z,17.20
2017-10-16T20:31:45.889Z,20.37
2017-10-16T20:34:14.235Z,16.90
2017-10-16T20:36:42.577Z,17.03
2017-10-16T20:39:10.957Z,18.20
2017-10-16T20:41:39.278Z,14.83
2017-10-16T20:44:07.597Z,18.10
2017-10-16T20:46:36.691Z,16.23
2017-10-16T20:49:05.031Z,14.10
2017-10-16T20:51:33.414Z,15.23
2017-10-16T20:54:01.725Z,16.87
2017-10-16T20:56:30.830Z,17.83
2017-10-16T20:58:59.955Z,15.07
2017-10-16T21:01:28.804Z,20.23
2017-10-16T21:03:57.912Z,16.33
2017-10-16T21:06:26.218Z,17.63
2017-10-16T21:08:54.594Z,17.37
2017-10-16T21:11:22.914Z,19.23
2017-10-16T21:13:51.270Z,14.37
2017-10-16T21:16:20.364Z,20.63
2017-10-16T21:18:48.724Z,16.20
2017-10-16T21:21:17.074Z,16.47
2017-10-16T21:23:45.405Z,14.03
2017-10-16T21:26:13.727Z,18.67
2017-10-16T21:28:42.856Z,13.93
2017-10-16T21:31:11.257Z,15.87
2017-10-16T21:33:40.344Z,25.33
2017-10-16T21:36:08.702Z,19.97
2017-10-16T21:38:37.025Z,18.13
2017-10-16T21:41:06.098Z,14.70
2017-10-16T21:43:35.197Z,13.47
2017-10-16T21:46:03.555Z,13.27
2017-10-16T21:48:31.898Z,14.03
2017-10-16T21:51:00.953Z,20.33
2017-10-16T21:53:30.870Z,15.57
2017-10-16T21:55:59.292Z,16.27
2017-10-16T21:58:28.488Z,14.70
2017-10-16T22:00:56.794Z,16.73
2017-10-16T22:03:25.105Z,15.03
2017-10-16T22:05:53.465Z,22.10
2017-10-16T22:08:21.788Z,14.67
2017-10-16T22:10:50.929Z,20.90
2017-10-16T22:13:19.252Z,17.13
2017-10-16T22:15:47.727Z,16.53
2017-10-16T22:18:16.042Z,17.47
2017-10-16T22:20:44.376Z,21.77
2017-10-16T22:23:13.469Z,18.80
2017-10-16T22:25:41.823Z,17.57
2017-10-16T22:28:10.130Z,15.07
2017-10-16T22:30:38.479Z,16.90
2017-10-16T22:33:06.782Z,19.97
2017-10-16T22:35:35.089Z,16.60
2017-10-16T22:38:03.455Z,17.97
2017-10-16T22:40:31.759Z,16.63
2017-10-16T22:43:00.088Z,17.97
2017-10-16T22:45:28.404Z,15.20
2017-10-16T22:47:56.752Z,17.70
2017-10-16T22:50:25.121Z,13.70
2017-10-16T22:52:57.497Z,14.87
2017-10-16T22:55:25.859Z,18.97
2017-10-16T22:57:54.985Z,16.53
2017-10-16T23:00:23.320Z,15.70
2017-10-16T23:02:51.709Z,14.20
2017-10-16T23:05:20.837Z,14.97
2017-10-16T23:07:49.162Z,17.20
2017-10-16T23:10:17.494Z,14.20
2017-10-16T23:12:45.806Z,20.73
2017-10-16T23:15:14.119Z,15.10
2017-10-16T23:17:42.428Z,15.40
2017-10-16T23:20:10.822Z,22.77
2017-10-16T23:22:39.118Z,15.20
2017-10-16T23:25:07.455Z,16.37
2017-10-16T23:27:35.784Z,15.00
2017-10-16T23:30:04.135Z,15.63
2017-10-16T23:32:32.458Z,16.10
2017-10-16T23:35:00.785Z,15.80
2017-10-16T23:37:29.898Z,14.60
2017-10-16T23:39:58.207Z,13.23
2017-10-16T23:42:27.280Z,12.80
2017-10-16T23:44:56.375Z,14.20
2017-10-16T23:47:24.765Z,13.73
2017-10-16T23:49:53.462Z,14.07
2017-10-16T23:52:23.067Z,14.93
2017-10-16T23:54:51.417Z,15.60
2017-10-16T23:57:19.746Z,18.43
2017-10-16T23:59:48.873Z,13.10
